sensor_id;sensor_type;location;lat;lon;timestamp;P1;durP1;ratioP1;P2;durP2;ratioP2
66761;SDS011;53672;48.176;16.338;2023-02-28T00:00:45;13.57;;;5.50;;
66761;SDS011;53672;48.176;16.338;2023-02-28T00:05:46;14.23;;;5.57;;
66761;SDS011;53672;48.176;16.338;2023-02-28T00:10:47;15.60;;;5.93;;
66761;SDS011;53672;48.176;16.338;2023-02-28T00:15:48;16.20;;;5.90;;
66761;SDS011;53672;48.176;16.338;2023-02-28T00:20:58;16.27;;;6.18;;
66761;SDS011;53672;48.176;16.338;2023-02-28T00:25:59;16.60;;;6.37;;
66761;SDS011;53672;48.176;16.338;2023-02-28T00:31:01;15.37;;;6.23;;
66761;SDS011;53672;48.176;16.338;2023-02-28T00:36:03;19.33;;;6.78;;
66761;SDS011;53672;48.176;16.338;2023-02-28T00:41:05;16.53;;;6.50;;
66761;SDS011;53672;48.176;16.338;2023-02-28T00:46:07;19.23;;;6.47;;
66761;SDS011;53672;48.176;16.338;2023-02-28T00:51:09;18.50;;;6.32;;
66761;SDS011;53672;48.176;16.338;2023-02-28T00:56:10;15.97;;;6.57;;
66761;SDS011;53672;48.176;16.338;2023-02-28T01:01:12;17.40;;;6.85;;
66761;SDS011;53672;48.176;16.338;2023-02-28T01:06:12;17.40;;;6.80;;
66761;SDS011;53672;48.176;16.338;2023-02-28T01:11:14;19.20;;;6.72;;
66761;SDS011;53672;48.176;16.338;2023-02-28T01:16:17;17.88;;;6.82;;
66761;SDS011;53672;48.176;16.338;2023-02-28T01:21:19;14.90;;;6.20;;
66761;SDS011;53672;48.176;16.338;2023-02-28T01:26:22;19.33;;;6.27;;
66761;SDS011;53672;48.176;16.338;2023-02-28T01:31:24;16.73;;;6.50;;
66761;SDS011;53672;48.176;16.338;2023-02-28T01:36:25;16.25;;;7.18;;
66761;SDS011;53672;48.176;16.338;2023-02-28T01:41:27;16.70;;;6.30;;
66761;SDS011;53672;48.176;16.338;2023-02-28T01:46:31;19.42;;;6.95;;
66761;SDS011;53672;48.176;16.338;2023-02-28T01:51:34;17.63;;;6.90;;
66761;SDS011;53672;48.176;16.338;2023-02-28T01:56:41;18.50;;;6.57;;
66761;SDS011;53672;48.176;16.338;2023-02-28T02:01:45;17.40;;;7.00;;
66761;SDS011;53672;48.176;16.338;2023-02-28T02:06:46;17.65;;;6.70;;
66761;SDS011;53672;48.176;16.338;2023-02-28T02:11:48;16.23;;;6.57;;
66761;SDS011;53672;48.176;16.338;2023-02-28T02:16:54;17.77;;;7.47;;
66761;SDS011;53672;48.176;16.338;2023-02-28T02:22:12;16.42;;;6.82;;
66761;SDS011;53672;48.176;16.338;2023-02-28T02:39:11;18.70;;;6.93;;
66761;SDS011;53672;48.176;16.338;2023-02-28T02:44:18;18.02;;;6.95;;
66761;SDS011;53672;48.176;16.338;2023-02-28T02:49:27;15.48;;;6.78;;
66761;SDS011;53672;48.176;16.338;2023-02-28T02:54:34;18.08;;;7.07;;
66761;SDS011;53672;48.176;16.338;2023-02-28T02:59:38;16.67;;;6.82;;
66761;SDS011;53672;48.176;16.338;2023-02-28T03:04:42;16.43;;;6.73;;
66761;SDS011;53672;48.176;16.338;2023-02-28T03:09:49;20.27;;;7.40;;
66761;SDS011;53672;48.176;16.338;2023-02-28T03:14:56;20.77;;;6.90;;
66761;SDS011;53672;48.176;16.338;2023-02-28T03:20:06;18.58;;;7.43;;
66761;SDS011;53672;48.176;16.338;2023-02-28T03:25:15;17.50;;;7.30;;
66761;SDS011;53672;48.176;16.338;2023-02-28T03:30:22;18.90;;;7.37;;
66761;SDS011;53672;48.176;16.338;2023-02-28T03:35:28;17.88;;;6.78;;
66761;SDS011;53672;48.176;16.338;2023-02-28T03:40:33;17.90;;;6.90;;
66761;SDS011;53672;48.176;16.338;2023-02-28T03:45:38;18.48;;;7.57;;
66761;SDS011;53672;48.176;16.338;2023-02-28T03:50:44;16.70;;;7.15;;
66761;SDS011;53672;48.176;16.338;2023-02-28T03:55:50;16.53;;;6.90;;
66761;SDS011;53672;48.176;16.338;2023-02-28T04:00:57;22.20;;;7.72;;
66761;SDS011;53672;48.176;16.338;2023-02-28T04:06:04;23.90;;;8.48;;
66761;SDS011;53672;48.176;16.338;2023-02-28T04:11:08;19.45;;;7.07;;
66761;SDS011;53672;48.176;16.338;2023-02-28T04:16:18;19.75;;;7.20;;
66761;SDS011;53672;48.176;16.338;2023-02-28T04:21:19;19.60;;;7.10;;
66761;SDS011;53672;48.176;16.338;2023-02-28T04:26:20;20.90;;;6.87;;
66761;SDS011;53672;48.176;16.338;2023-02-28T04:31:20;21.02;;;7.72;;
66761;SDS011;53672;48.176;16.338;2023-02-28T04:36:22;22.25;;;7.85;;
66761;SDS011;53672;48.176;16.338;2023-02-28T04:41:23;24.77;;;9.03;;
66761;SDS011;53672;48.176;16.338;2023-02-28T04:46:24;29.00;;;11.30;;
66761;SDS011;53672;48.176;16.338;2023-02-28T04:51:26;27.67;;;10.48;;
66761;SDS011;53672;48.176;16.338;2023-02-28T04:56:26;28.50;;;10.80;;
66761;SDS011;53672;48.176;16.338;2023-02-28T05:01:28;28.67;;;10.60;;
66761;SDS011;53672;48.176;16.338;2023-02-28T05:06:31;25.65;;;9.80;;
66761;SDS011;53672;48.176;16.338;2023-02-28T05:11:33;22.73;;;8.90;;
66761;SDS011;53672;48.176;16.338;2023-02-28T05:16:34;22.13;;;8.20;;
66761;SDS011;53672;48.176;16.338;2023-02-28T05:21:37;23.90;;;8.20;;
66761;SDS011;53672;48.176;16.338;2023-02-28T05:26:39;22.35;;;8.45;;
66761;SDS011;53672;48.176;16.338;2023-02-28T05:31:40;19.97;;;7.77;;
66761;SDS011;53672;48.176;16.338;2023-02-28T05:36:42;22.52;;;8.38;;
66761;SDS011;53672;48.176;16.338;2023-02-28T05:41:43;23.02;;;8.00;;
66761;SDS011;53672;48.176;16.338;2023-02-28T05:46:44;18.30;;;7.67;;
66761;SDS011;53672;48.176;16.338;2023-02-28T05:51:45;23.30;;;8.13;;
66761;SDS011;53672;48.176;16.338;2023-02-28T05:56:46;21.27;;;7.97;;
66761;SDS011;53672;48.176;16.338;2023-02-28T06:01:47;20.70;;;8.40;;
66761;SDS011;53672;48.176;16.338;2023-02-28T06:06:49;24.37;;;8.83;;
66761;SDS011;53672;48.176;16.338;2023-02-28T06:11:50;22.85;;;8.88;;
66761;SDS011;53672;48.176;16.338;2023-02-28T06:16:51;24.43;;;10.10;;
66761;SDS011;53672;48.176;16.338;2023-02-28T06:21:53;23.67;;;9.77;;
66761;SDS011;53672;48.176;16.338;2023-02-28T06:26:54;20.63;;;8.73;;
66761;SDS011;53672;48.176;16.338;2023-02-28T06:31:55;21.17;;;8.70;;
66761;SDS011;53672;48.176;16.338;2023-02-28T06:36:57;23.93;;;8.80;;
66761;SDS011;53672;48.176;16.338;2023-02-28T06:41:57;25.42;;;8.75;;
66761;SDS011;53672;48.176;16.338;2023-02-28T06:46:58;26.13;;;9.10;;
66761;SDS011;53672;48.176;16.338;2023-02-28T06:52:00;24.73;;;9.60;;
66761;SDS011;53672;48.176;16.338;2023-02-28T06:57:01;21.65;;;8.60;;
66761;SDS011;53672;48.176;16.338;2023-02-28T07:02:01;25.97;;;9.63;;
66761;SDS011;53672;48.176;16.338;2023-02-28T07:07:03;22.80;;;9.40;;
66761;SDS011;53672;48.176;16.338;2023-02-28T07:12:04;24.55;;;8.85;;
66761;SDS011;53672;48.176;16.338;2023-02-28T07:17:06;26.63;;;10.17;;
66761;SDS011;53672;48.176;16.338;2023-02-28T07:22:08;24.85;;;9.68;;
66761;SDS011;53672;48.176;16.338;2023-02-28T07:27:09;23.42;;;9.88;;
66761;SDS011;53672;48.176;16.338;2023-02-28T07:32:09;28.20;;;9.80;;
66761;SDS011;53672;48.176;16.338;2023-02-28T07:37:11;21.27;;;9.50;;
66761;SDS011;53672;48.176;16.338;2023-02-28T07:42:11;24.43;;;9.83;;
66761;SDS011;53672;48.176;16.338;2023-02-28T07:47:12;25.50;;;10.60;;
66761;SDS011;53672;48.176;16.338;2023-02-28T07:52:14;22.90;;;9.88;;
66761;SDS011;53672;48.176;16.338;2023-02-28T07:57:14;22.93;;;9.90;;
66761;SDS011;53672;48.176;16.338;2023-02-28T08:02:16;24.97;;;10.43;;
66761;SDS011;53672;48.176;16.338;2023-02-28T08:07:18;20.55;;;8.75;;
66761;SDS011;53672;48.176;16.338;2023-02-28T08:12:19;24.00;;;9.82;;
66761;SDS011;53672;48.176;16.338;2023-02-28T08:17:19;20.77;;;9.27;;
66761;SDS011;53672;48.176;16.338;2023-02-28T08:22:21;22.67;;;10.20;;
66761;SDS011;53672;48.176;16.338;2023-02-28T08:27:22;24.80;;;10.73;;
66761;SDS011;53672;48.176;16.338;2023-02-28T08:32:22;21.95;;;9.82;;
66761;SDS011;53672;48.176;16.338;2023-02-28T08:37:24;18.67;;;9.47;;
66761;SDS011;53672;48.176;16.338;2023-02-28T08:42:25;22.60;;;10.30;;
66761;SDS011;53672;48.176;16.338;2023-02-28T08:47:26;21.25;;;10.43;;
66761;SDS011;53672;48.176;16.338;2023-02-28T08:52:27;23.97;;;9.97;;
66761;SDS011;53672;48.176;16.338;2023-02-28T08:57:28;21.83;;;10.07;;
66761;SDS011;53672;48.176;16.338;2023-02-28T09:02:28;20.17;;;10.20;;
66761;SDS011;53672;48.176;16.338;2023-02-28T09:07:30;19.88;;;10.18;;
66761;SDS011;53672;48.176;16.338;2023-02-28T09:12:32;17.98;;;10.07;;
66761;SDS011;53672;48.176;16.338;2023-02-28T09:17:34;19.92;;;10.13;;
66761;SDS011;53672;48.176;16.338;2023-02-28T09:22:35;18.87;;;10.37;;
66761;SDS011;53672;48.176;16.338;2023-02-28T09:27:36;18.90;;;9.90;;
66761;SDS011;53672;48.176;16.338;2023-02-28T09:32:36;16.50;;;9.63;;
66761;SDS011;53672;48.176;16.338;2023-02-28T09:37:38;17.27;;;9.57;;
66761;SDS011;53672;48.176;16.338;2023-02-28T09:42:39;18.10;;;9.97;;
66761;SDS011;53672;48.176;16.338;2023-02-28T09:47:40;18.03;;;9.53;;
66761;SDS011;53672;48.176;16.338;2023-02-28T09:52:45;17.55;;;10.02;;
66761;SDS011;53672;48.176;16.338;2023-02-28T09:57:48;19.05;;;10.35;;
66761;SDS011;53672;48.176;16.338;2023-02-28T10:02:57;20.73;;;10.43;;
66761;SDS011;53672;48.176;16.338;2023-02-28T10:08:10;23.83;;;10.40;;
66761;SDS011;53672;48.176;16.338;2023-02-28T10:13:15;24.43;;;10.67;;
66761;SDS011;53672;48.176;16.338;2023-02-28T10:18:23;22.17;;;10.38;;
66761;SDS011;53672;48.176;16.338;2023-02-28T10:23:31;20.55;;;10.75;;
66761;SDS011;53672;48.176;16.338;2023-02-28T10:28:34;23.27;;;11.95;;
66761;SDS011;53672;48.176;16.338;2023-02-28T10:33:35;22.10;;;11.30;;
66761;SDS011;53672;48.176;16.338;2023-02-28T10:38:37;17.95;;;10.13;;
66761;SDS011;53672;48.176;16.338;2023-02-28T10:43:39;20.13;;;11.00;;
66761;SDS011;53672;48.176;16.338;2023-02-28T10:48:41;18.60;;;11.57;;
66761;SDS011;53672;48.176;16.338;2023-02-28T10:53:48;19.53;;;10.83;;
66761;SDS011;53672;48.176;16.338;2023-02-28T10:58:51;20.48;;;11.05;;
66761;SDS011;53672;48.176;16.338;2023-02-28T11:03:53;18.58;;;11.05;;
66761;SDS011;53672;48.176;16.338;2023-02-28T11:08:55;21.17;;;11.50;;
66761;SDS011;53672;48.176;16.338;2023-02-28T11:14:02;17.80;;;10.00;;
66761;SDS011;53672;48.176;16.338;2023-02-28T11:19:06;19.65;;;10.50;;
66761;SDS011;53672;48.176;16.338;2023-02-28T11:24:21;19.30;;;11.10;;
66761;SDS011;53672;48.176;16.338;2023-02-28T11:29:25;16.45;;;8.88;;
66761;SDS011;53672;48.176;16.338;2023-02-28T11:34:27;17.80;;;9.73;;
66761;SDS011;53672;48.176;16.338;2023-02-28T11:39:30;19.63;;;10.27;;
66761;SDS011;53672;48.176;16.338;2023-02-28T11:44:36;20.48;;;9.90;;
66761;SDS011;53672;48.176;16.338;2023-02-28T11:49:49;19.63;;;10.27;;
66761;SDS011;53672;48.176;16.338;2023-02-28T11:55:05;21.52;;;10.48;;
66761;SDS011;53672;48.176;16.338;2023-02-28T12:00:17;19.70;;;10.02;;
66761;SDS011;53672;48.176;16.338;2023-02-28T12:05:31;21.52;;;10.27;;
66761;SDS011;53672;48.176;16.338;2023-02-28T12:10:42;20.30;;;9.40;;
66761;SDS011;53672;48.176;16.338;2023-02-28T12:15:58;19.07;;;8.77;;
66761;SDS011;53672;48.176;16.338;2023-02-28T12:21:20;19.50;;;9.55;;
66761;SDS011;53672;48.176;16.338;2023-02-28T12:26:34;18.23;;;9.18;;
66761;SDS011;53672;48.176;16.338;2023-02-28T12:31:40;17.55;;;8.70;;
66761;SDS011;53672;48.176;16.338;2023-02-28T12:36:46;19.58;;;8.63;;
66761;SDS011;53672;48.176;16.338;2023-02-28T12:41:51;19.30;;;8.37;;
66761;SDS011;53672;48.176;16.338;2023-02-28T12:46:56;18.77;;;8.30;;
66761;SDS011;53672;48.176;16.338;2023-02-28T12:52:01;19.70;;;7.95;;
66761;SDS011;53672;48.176;16.338;2023-02-28T12:57:08;18.17;;;7.47;;
66761;SDS011;53672;48.176;16.338;2023-02-28T13:02:22;18.58;;;7.93;;
66761;SDS011;53672;48.176;16.338;2023-02-28T13:07:48;16.53;;;7.53;;
66761;SDS011;53672;48.176;16.338;2023-02-28T13:13:05;17.67;;;6.90;;
66761;SDS011;53672;48.176;16.338;2023-02-28T13:18:20;14.00;;;6.50;;
66761;SDS011;53672;48.176;16.338;2023-02-28T13:29:00;17.85;;;7.07;;
66761;SDS011;53672;48.176;16.338;2023-02-28T13:34:04;15.30;;;6.10;;
66761;SDS011;53672;48.176;16.338;2023-02-28T13:50:23;15.23;;;6.20;;
66761;SDS011;53672;48.176;16.338;2023-02-28T13:55:29;17.13;;;7.10;;
66761;SDS011;53672;48.176;16.338;2023-02-28T14:00:42;13.60;;;6.40;;
66761;SDS011;53672;48.176;16.338;2023-02-28T14:06:15;13.48;;;6.47;;
66761;SDS011;53672;48.176;16.338;2023-02-28T14:11:29;17.52;;;7.38;;
66761;SDS011;53672;48.176;16.338;2023-02-28T14:16:38;13.52;;;6.85;;
66761;SDS011;53672;48.176;16.338;2023-02-28T14:21:43;18.42;;;8.85;;
66761;SDS011;53672;48.176;16.338;2023-02-28T14:27:06;18.33;;;8.40;;
66761;SDS011;53672;48.176;16.338;2023-02-28T14:32:21;16.38;;;8.40;;
66761;SDS011;53672;48.176;16.338;2023-02-28T14:37:28;17.00;;;8.10;;
66761;SDS011;53672;48.176;16.338;2023-02-28T14:42:32;17.20;;;7.60;;
66761;SDS011;53672;48.176;16.338;2023-02-28T14:47:35;19.45;;;7.82;;
66761;SDS011;53672;48.176;16.338;2023-02-28T14:52:36;16.17;;;7.30;;
66761;SDS011;53672;48.176;16.338;2023-02-28T14:57:39;17.02;;;7.68;;
66761;SDS011;53672;48.176;16.338;2023-02-28T15:02:43;15.43;;;7.45;;
66761;SDS011;53672;48.176;16.338;2023-02-28T15:07:44;17.00;;;8.13;;
66761;SDS011;53672;48.176;16.338;2023-02-28T15:12:46;15.27;;;7.53;;
66761;SDS011;53672;48.176;16.338;2023-02-28T15:17:53;18.80;;;8.65;;
66761;SDS011;53672;48.176;16.338;2023-02-28T15:22:56;17.20;;;7.90;;
66761;SDS011;53672;48.176;16.338;2023-02-28T15:27:57;23.70;;;8.38;;
66761;SDS011;53672;48.176;16.338;2023-02-28T15:33:04;18.02;;;8.80;;
66761;SDS011;53672;48.176;16.338;2023-02-28T15:38:13;18.55;;;8.07;;
66761;SDS011;53672;48.176;16.338;2023-02-28T15:43:18;18.08;;;8.85;;
66761;SDS011;53672;48.176;16.338;2023-02-28T15:48:26;18.43;;;8.53;;
66761;SDS011;53672;48.176;16.338;2023-02-28T15:53:30;18.05;;;8.20;;
66761;SDS011;53672;48.176;16.338;2023-02-28T15:58:34;19.25;;;9.00;;
66761;SDS011;53672;48.176;16.338;2023-02-28T16:03:41;19.67;;;8.90;;
66761;SDS011;53672;48.176;16.338;2023-02-28T16:08:45;19.13;;;8.40;;
66761;SDS011;53672;48.176;16.338;2023-02-28T16:13:46;24.13;;;9.80;;
66761;SDS011;53672;48.176;16.338;2023-02-28T16:18:48;19.27;;;9.23;;
66761;SDS011;53672;48.176;16.338;2023-02-28T16:23:48;17.58;;;8.73;;
66761;SDS011;53672;48.176;16.338;2023-02-28T16:28:49;19.93;;;9.83;;
66761;SDS011;53672;48.176;16.338;2023-02-28T16:33:52;18.92;;;9.40;;
66761;SDS011;53672;48.176;16.338;2023-02-28T16:38:53;21.67;;;9.50;;
66761;SDS011;53672;48.176;16.338;2023-02-28T16:43:55;22.15;;;9.75;;
66761;SDS011;53672;48.176;16.338;2023-02-28T16:49:00;18.00;;;9.27;;
66761;SDS011;53672;48.176;16.338;2023-02-28T16:54:01;22.15;;;10.13;;
66761;SDS011;53672;48.176;16.338;2023-02-28T16:59:01;20.10;;;9.47;;
66761;SDS011;53672;48.176;16.338;2023-02-28T17:04:04;20.50;;;9.88;;
66761;SDS011;53672;48.176;16.338;2023-02-28T17:09:05;19.83;;;9.53;;
66761;SDS011;53672;48.176;16.338;2023-02-28T17:14:05;19.38;;;9.23;;
66761;SDS011;53672;48.176;16.338;2023-02-28T17:19:09;21.20;;;9.98;;
66761;SDS011;53672;48.176;16.338;2023-02-28T17:24:12;22.63;;;10.70;;
66761;SDS011;53672;48.176;16.338;2023-02-28T17:29:13;22.40;;;10.40;;
66761;SDS011;53672;48.176;16.338;2023-02-28T17:34:17;24.20;;;10.45;;
66761;SDS011;53672;48.176;16.338;2023-02-28T17:39:18;21.33;;;10.38;;
66761;SDS011;53672;48.176;16.338;2023-02-28T17:44:19;23.63;;;10.80;;
66761;SDS011;53672;48.176;16.338;2023-02-28T17:49:22;25.15;;;11.02;;
66761;SDS011;53672;48.176;16.338;2023-02-28T17:54:23;25.10;;;10.87;;
66761;SDS011;53672;48.176;16.338;2023-02-28T17:59:23;23.52;;;10.93;;
66761;SDS011;53672;48.176;16.338;2023-02-28T18:04:25;24.20;;;11.30;;
66761;SDS011;53672;48.176;16.338;2023-02-28T18:09:27;23.05;;;11.43;;
66761;SDS011;53672;48.176;16.338;2023-02-28T18:14:27;25.43;;;10.93;;
66761;SDS011;53672;48.176;16.338;2023-02-28T18:19:30;27.23;;;12.00;;
66761;SDS011;53672;48.176;16.338;2023-02-28T18:24:30;23.95;;;10.85;;
66761;SDS011;53672;48.176;16.338;2023-02-28T18:29:31;22.50;;;8.50;;
66761;SDS011;53672;48.176;16.338;2023-02-28T18:34:34;19.27;;;8.07;;
66761;SDS011;53672;48.176;16.338;2023-02-28T18:39:39;21.23;;;8.77;;
66761;SDS011;53672;48.176;16.338;2023-02-28T18:44:40;19.80;;;8.60;;
66761;SDS011;53672;48.176;16.338;2023-02-28T18:49:43;18.10;;;7.78;;
66761;SDS011;53672;48.176;16.338;2023-02-28T18:54:44;18.17;;;8.17;;
66761;SDS011;53672;48.176;16.338;2023-02-28T18:59:45;18.13;;;8.18;;
66761;SDS011;53672;48.176;16.338;2023-02-28T19:04:48;21.35;;;8.18;;
66761;SDS011;53672;48.176;16.338;2023-02-28T19:09:49;19.13;;;8.00;;
66761;SDS011;53672;48.176;16.338;2023-02-28T19:14:51;19.60;;;8.60;;
66761;SDS011;53672;48.176;16.338;2023-02-28T19:19:53;21.07;;;8.53;;
66761;SDS011;53672;48.176;16.338;2023-02-28T19:24:54;21.75;;;8.00;;
66761;SDS011;53672;48.176;16.338;2023-02-28T19:29:56;19.08;;;8.30;;
66761;SDS011;53672;48.176;16.338;2023-02-28T19:34:58;20.13;;;8.63;;
66761;SDS011;53672;48.176;16.338;2023-02-28T19:40:00;20.10;;;8.32;;
66761;SDS011;53672;48.176;16.338;2023-02-28T19:45:01;25.53;;;9.90;;
66761;SDS011;53672;48.176;16.338;2023-02-28T19:50:06;20.58;;;9.07;;
66761;SDS011;53672;48.176;16.338;2023-02-28T19:55:08;22.50;;;9.10;;
66761;SDS011;53672;48.176;16.338;2023-02-28T20:00:10;20.73;;;9.17;;
66761;SDS011;53672;48.176;16.338;2023-02-28T20:05:15;23.17;;;10.27;;
66761;SDS011;53672;48.176;16.338;2023-02-28T20:10:16;24.40;;;10.10;;
66761;SDS011;53672;48.176;16.338;2023-02-28T20:15:17;24.45;;;9.77;;
66761;SDS011;53672;48.176;16.338;2023-02-28T20:20:19;23.60;;;9.10;;
66761;SDS011;53672;48.176;16.338;2023-02-28T20:25:20;22.40;;;9.68;;
66761;SDS011;53672;48.176;16.338;2023-02-28T20:30:21;23.63;;;9.90;;
66761;SDS011;53672;48.176;16.338;2023-02-28T20:35:24;26.00;;;10.48;;
66761;SDS011;53672;48.176;16.338;2023-02-28T20:40:25;28.17;;;10.90;;
66761;SDS011;53672;48.176;16.338;2023-02-28T20:45:27;26.75;;;11.43;;
66761;SDS011;53672;48.176;16.338;2023-02-28T20:50:29;31.45;;;11.63;;
66761;SDS011;53672;48.176;16.338;2023-02-28T20:55:30;29.27;;;12.90;;
66761;SDS011;53672;48.176;16.338;2023-02-28T21:00:32;34.60;;;14.65;;
66761;SDS011;53672;48.176;16.338;2023-02-28T21:05:34;34.07;;;14.17;;
66761;SDS011;53672;48.176;16.338;2023-02-28T21:10:35;31.60;;;13.45;;
66761;SDS011;53672;48.176;16.338;2023-02-28T21:15:36;32.20;;;12.73;;
66761;SDS011;53672;48.176;16.338;2023-02-28T21:20:41;31.45;;;12.90;;
66761;SDS011;53672;48.176;16.338;2023-02-28T21:25:42;28.80;;;12.27;;
66761;SDS011;53672;48.176;16.338;2023-02-28T21:30:42;30.95;;;13.48;;
66761;SDS011;53672;48.176;16.338;2023-02-28T21:35:44;32.57;;;13.10;;
66761;SDS011;53672;48.176;16.338;2023-02-28T21:40:45;31.02;;;13.13;;
66761;SDS011;53672;48.176;16.338;2023-02-28T21:45:45;31.40;;;12.50;;
66761;SDS011;53672;48.176;16.338;2023-02-28T21:50:54;30.40;;;12.80;;
66761;SDS011;53672;48.176;16.338;2023-02-28T21:55:58;33.87;;;13.37;;
66761;SDS011;53672;48.176;16.338;2023-02-28T22:01:03;37.60;;;14.55;;
66761;SDS011;53672;48.176;16.338;2023-02-28T22:06:12;35.60;;;14.05;;
66761;SDS011;53672;48.176;16.338;2023-02-28T22:11:14;31.90;;;13.57;;
66761;SDS011;53672;48.176;16.338;2023-02-28T22:16:17;32.00;;;13.27;;
66761;SDS011;53672;48.176;16.338;2023-02-28T22:21:20;30.13;;;12.90;;
66761;SDS011;53672;48.176;16.338;2023-02-28T22:26:21;29.63;;;12.55;;
66761;SDS011;53672;48.176;16.338;2023-02-28T22:31:23;33.28;;;13.32;;
66761;SDS011;53672;48.176;16.338;2023-02-28T22:36:27;30.40;;;12.15;;
66761;SDS011;53672;48.176;16.338;2023-02-28T22:41:28;30.33;;;13.13;;
66761;SDS011;53672;48.176;16.338;2023-02-28T22:46:29;29.13;;;12.70;;
66761;SDS011;53672;48.176;16.338;2023-02-28T22:51:33;32.45;;;13.30;;
66761;SDS011;53672;48.176;16.338;2023-02-28T22:56:34;39.57;;;14.00;;
66761;SDS011;53672;48.176;16.338;2023-02-28T23:01:34;31.83;;;13.63;;
66761;SDS011;53672;48.176;16.338;2023-02-28T23:06:36;34.80;;;13.55;;
66761;SDS011;53672;48.176;16.338;2023-02-28T23:11:39;33.23;;;13.77;;
66761;SDS011;53672;48.176;16.338;2023-02-28T23:16:41;35.25;;;13.73;;
66761;SDS011;53672;48.176;16.338;2023-02-28T23:21:45;37.05;;;14.57;;
66761;SDS011;53672;48.176;16.338;2023-02-28T23:26:47;35.90;;;13.80;;
66761;SDS011;53672;48.176;16.338;2023-02-28T23:31:50;33.75;;;13.90;;
66761;SDS011;53672;48.176;16.338;2023-02-28T23:36:52;33.93;;;13.57;;
66761;SDS011;53672;48.176;16.338;2023-02-28T23:41:53;37.53;;;15.32;;
66761;SDS011;53672;48.176;16.338;2023-02-28T23:46:55;37.37;;;14.67;;
66761;SDS011;53672;48.176;16.338;2023-02-28T23:51:56;37.90;;;13.43;;
66761;SDS011;53672;48.176;16.338;2023-02-28T23:56:57;37.80;;;14.73;;
